Caliente, Nevada Weather observations

Data are for observation ending at time listed.
 Day   Time    Ave.   Ave.  Ave.  Vector   Max.   Stn.    Total    Solar   Ave.  
  of    of     Air    Rel.  Wind   Wind    Wind   Baro.  Precip.   Rad.    Soil  
Year   Day     Temp.  Hum.  Speed  Dir.    Gust   Pres.                    Temp. 
2015   (PST)    F      %     mph   deg.    mph     mb.     in.     W/m2     F   
------------------------------------------------------------------------------
 148    0:40   56.2    68    0.1   144      0.8   868.4    0.00       0    71.2
 148    0:50   56.2    69    0.5   261      1.5   868.5    0.00       0    71.0
 148    1:00   55.5    70    0.6   132      1.5   868.6    0.00       0    70.8
 148    1:10   55.5    69    0.3   120      1.4   868.6    0.00       0    70.7
 148    1:20   55.5    69    0.8   253      5.5   868.5    0.00       0    70.5
 148    1:30   55.3    71    1.5   291      5.2   868.5    0.00       0    70.3
 148    1:40   54.4    72    0.8   152      2.2   868.5    0.00       0    70.1
 148    1:50   54.1    74    0.5   350      1.5   868.4    0.00       0    70.0
 148    2:00   54.1    73    1.1   159      2.2   868.3    0.00       0    69.8
 148    2:10   53.7    74    0.3   165      1.0   868.4    0.00       0    69.7
 148    2:20   53.8    74    0.2   300      1.8   868.4    0.00       0    69.5
 148    2:30   53.3    75    0.9   115      2.9   868.3    0.00       0    69.3
 148    2:40   52.8    75    1.1   111      4.6   868.2    0.00       0    69.2
 148    2:50   53.2    75    1.3    60      4.2   868.3    0.00       0    69.0
 148    3:00   52.1    78    0.9   143      2.0   868.3    0.00       0    68.8
 148    3:10   51.7    79    0.5   264      1.6   868.3    0.00       0    68.7
 148    3:20   51.8    79    0.2   109      1.6   868.4    0.00       0    68.5
 148    3:30   51.4    79    0.6   135      1.7   868.4    0.00       0    68.3
 148    3:40   51.4    79    0.9    74      2.4   868.4    0.00       0    68.2
 148    3:50   51.4    79    0.4    80      2.2   868.4    0.00       0    68.0
 148    4:00   51.1    79    0.4   105      2.2   868.4    0.00       0    67.9
 148    4:10   51.0    81    1.2    85      2.4   868.4    0.00       0    67.7
 148    4:20   50.5    82    0.6    78      1.8   868.5    0.00       2    67.5
 148    4:30   50.1    83    0.7   128      2.0   868.6    0.00       2    67.4
 148    4:40   49.7    83    0.8   165      1.8   868.7    0.00       6    67.2
 148    4:50   49.9    83    0.0     0      0.0   868.7    0.00      11    67.1
 148    5:00   50.0    83    0.0     0      0.0   868.7    0.00      14    66.9
 148    5:10   50.1    83    0.0   187      0.7   868.8    0.00      21    66.8
 148    5:20   50.9    82    0.2   171      2.0   868.9    0.00      28    66.7
 148    5:30   51.0    81    0.2   257      1.5   869.0    0.00      21    66.5
 148    5:40   51.0    81    0.6    87      2.1   869.0    0.00      27    66.4
 148    5:50   51.9    79    1.2    36      2.4   869.0    0.00      35    66.3
 148    6:00   53.0    75    0.8    69      2.4   869.0    0.00      49    66.1
 148    6:10   53.9    73    0.6   118      1.9   869.0    0.00      53    66.1
 148    6:20   54.0    74    0.9    60      2.4   869.0    0.00      47    65.9
 148    6:30   55.0    70    1.4    54      4.4   869.0    0.00      79    65.9
 148    6:40   56.0    68    0.8    54      3.1   869.1    0.00     284    65.8
 148    6:50   57.1    66    0.9    84      2.4   869.1    0.00     316    65.7
 148    7:00   57.9    64    0.7    30      2.8   869.2    0.00     353    65.7
 148    7:10   59.0    61    1.8    87      4.5   869.2    0.00     374    65.6
 148    7:20   60.2    59    1.8    32      4.1   869.1    0.00     393    65.6
 148    7:30   60.7    59    2.3    15      4.7   869.1    0.00     416    65.5
 148    7:40   62.2    56    1.4   345      3.5   869.2    0.00     440    65.5
 148    7:50   63.0    54    2.3   340      4.5   869.2    0.00     465    65.4
 148    8:00   63.5    52    2.5    38      5.5   869.1    0.00     489    65.4
 148    8:10   64.2    51    2.2    47      5.8   869.1    0.00     509    65.5
 148    8:20   65.2    50    2.9     9      6.1   869.0    0.00     533    65.6
 148    8:30   66.0    48    3.1    35      5.3   868.8    0.00     555    65.7
 148    8:40   66.9    45    2.6    47      6.4   868.8    0.00     575    65.9
 148    8:50   67.4    44    1.8    14      4.6   868.8    0.00     596    66.0
 148    9:00   68.5    42    2.4    22      6.4   868.7    0.00     614    66.1
 148    9:10   69.5    40    2.0    27      4.2   868.6    0.00     632    66.4
 148    9:20   70.5    35    1.3    70      3.8   868.6    0.00     651    66.6
 148    9:30   71.8    30    1.8     8      4.9   868.6    0.00     668    66.7
 148    9:40   72.7    28    1.8   242      3.6   868.5    0.00     684    66.8
 148    9:50   73.0    30    2.7   260      5.3   868.4    0.00     695    67.0
 148   10:00   73.8    28    2.7   308      4.6   868.4    0.00     665    67.2
 148   10:10   75.1    26    1.2   314      3.2   868.3    0.00     649    67.3
 148   10:20   76.8    23    1.7   118      4.4   868.2    0.00     749    67.5
 148   10:30   76.6    24    1.4   149      4.6   868.1    0.00     792    67.7
 148   10:40   78.7    23    1.0   226      4.5   867.9    0.00     856    68.0
 148   10:50   78.7    23    1.0   191      3.5   867.8    0.00     512    68.4
 148   11:00   77.5    24    2.9   236      5.6   867.8    0.00     454    68.8
 148   11:10   78.0    23    3.3   251      5.8   867.7    0.00     436    69.2
 148   11:20   78.6    22    1.5   237      5.1   867.6    0.00     684    69.6
 148   11:30   78.7    22    3.6   128      7.2   867.5    0.00     549    70.0
 148   11:40   78.2    22    2.6   192      5.5   867.4    0.00     374    70.4
 148   11:50   80.2    22    1.3   238      4.7   867.4    0.00     589    70.7
 148   12:00   81.6    20    1.7   248      5.8   867.3    0.00     808    71.1
 148   12:10   79.9    21    2.8   150      7.7   867.2    0.00     821    71.5
 148   12:20   80.2    20    3.0   250      8.8   867.1    0.00     183    72.0
 148   12:30   79.7    19    2.7   269      8.3   866.9    0.00     612    72.5
 148   12:40   81.0    19    2.5   241      7.4   866.8    0.00     563    73.0
 148   12:50   80.3    19    2.5   264      6.2   866.7    0.00     189    73.6
 148   13:00   81.2    17    1.1    97      3.4   866.5    0.00     812    74.0
 148   13:10   82.6    16    2.3    32      7.0   866.4    0.00     723    74.7
 148   13:20   81.6    18    1.9   296      7.5   866.3    0.00     259    75.4
 148   13:30   82.6    16    1.4   248      5.3   866.3    0.00     740    76.1
 148   13:40   82.1    16    5.3   250     15.0   866.2    0.00     414    76.7
 148   13:50   82.0    17    3.8   247      8.2   866.1    0.00     437    77.3
 148   14:00   82.2    16    2.8   247      6.6   866.0    0.00     505    77.8
 148   14:10   82.0    16    4.5   249      8.6   865.9    0.00     429    78.3
 148   14:20   83.1    16    4.9   254      9.1   865.8    0.00     682    78.9
 148   14:30   83.2    16    7.1   249     14.2   865.8    0.00     549    79.4
 148   14:40   81.5    16    6.7   251     12.2   865.7    0.00     175    80.0
 148   14:50   81.0    17    3.5   212      8.9   865.7    0.00     115    80.4
 148   15:00   80.6    17    4.3   247      9.4   865.7    0.00     157    80.5
 148   15:10   80.7    17    8.9   245     16.1   865.8    0.00     208    80.5
 148   15:20   80.5    17    5.4   270     11.8   866.0    0.00     223    80.5
 148   15:30   79.7    19    6.7   355     15.6   866.1    0.00     304    80.5
 148   15:40   79.2    20    7.3     1     12.9   866.0    0.00     329    80.5
 148   15:50   79.4    19    7.6   351     16.4   866.0    0.00     374    80.6
 148   16:00   79.3    19    7.7   352     13.7   866.0    0.00     300    80.7
 148   16:10   79.4    19    7.2     0     16.5   865.9    0.00     393    80.9
 148   16:20   79.1    19    6.4    35     14.4   865.8    0.00     263    81.2
 148   16:30   78.8    19    5.1    28     10.4   865.8    0.00     236    81.4
 148   16:40   78.7    19    4.1    34     11.3   865.7    0.00     213    81.5
 148   16:50   79.0    19    3.2    88      8.9   865.7    0.00     320    81.7
 148   17:00   78.4    20    3.9    98      9.1   865.7    0.00     255    81.9
 148   17:10   78.3    20    2.6   105      7.0   865.7    0.00     225    82.0
 148   17:20   78.4    20    2.9   102      9.1   865.7    0.00     238    82.2
 148   17:30   78.3    20    4.1   106      6.6   865.6    0.00     186    82.4
 148   17:40   78.0    20    2.8   109      7.5   865.6    0.00     124    82.5
 148   17:50   77.9    20    2.0   106      4.1   865.6    0.00      55    82.6
 148   18:00   77.0    21    2.0   113      3.3   865.6    0.00      50    82.6
 148   18:10   76.5    22    1.9   109      3.4   865.7    0.00      28    82.5
 148   18:20   76.3    23    1.5    71      3.4   865.7    0.00      24    82.3
 148   18:30   75.6    26    1.1    87      2.0   865.8    0.00      12    82.1
 148   18:40   73.7    29    1.0   134      1.9   865.8    0.00       6    81.8
 148   18:50   73.6    28    0.5   121      1.5   865.9    0.00       3    81.6
 148   19:00   74.0    28    0.3   116      1.5   866.0    0.00       2    81.3
 148   19:10   73.1    30    1.5    71      3.7   866.1    0.00       0    81.0
 148   19:20   73.5    30    2.0    32      4.8   866.3    0.00       0    80.7
 148   19:30   74.2    27    3.5    36      7.6   866.5    0.00       0    80.5
 148   19:40   75.8    23    4.4    64     12.4   866.7    0.00       0    80.2
 148   19:50   73.7    30    4.7    73     14.6   867.3    0.00       0    80.0
 148   20:00   72.2    32    5.7    80     14.2   867.4    0.00       0    79.7
 148   20:10   71.0    35    7.8   105     15.8   867.2    0.00       0    79.4
 148   20:20   70.6    34    6.5   100     15.6   867.3    0.00       0    79.2
 148   20:30   70.0    34    9.0   102     22.7   867.4    0.00       0    78.9
 148   20:40   69.8    35    3.9    97     12.9   867.4    0.00       0    78.6
 148   20:50   69.4    36    2.1    34      3.9   867.7    0.00       0    78.3
 148   21:00   68.6    38    2.1   242      4.6   867.9    0.00       0    78.1
 148   21:10   67.8    39    1.9   142      5.4   867.9    0.00       0    77.9
 148   21:20   67.6    40    1.1   154      3.2   867.9    0.00       0    77.6
 148   21:30   67.1    41    1.7   126      5.6   868.1    0.00       1    77.4
 148   21:40   66.3    43    1.3   164      3.0   868.2    0.00       0    77.2
 148   21:50   65.7    44    1.5   140      4.9   868.2    0.00       0    77.0
 148   22:00   65.8    44    1.8   155      3.6   868.2    0.00       1    76.7
 148   22:10   65.3    46    0.7   150      2.3   868.1    0.00       1    76.5
 148   22:20   64.5    48    0.4   184      1.7   868.0    0.00       1    76.3
 148   22:30   64.1    50    1.3   333      2.6   868.1    0.00       1    76.1
 148   22:40   63.0    52    0.9   103      2.3   868.3    0.00       1    75.9
 148   22:50   62.7    52    0.8    70      2.0   868.3    0.00       1    75.7
 148   23:00   62.3    54    0.9    74      2.0   868.3    0.00       1    75.5
 148   23:10   61.7    55    0.1   275      1.2   868.4    0.00       1    75.3
 148   23:20   61.4    56    0.1   282      0.8   868.4    0.00       0    75.1
 148   23:30   60.8    57    0.8   312      1.8   868.5    0.00       1    74.9
 148   23:40   60.8    59    0.3   289      2.0   868.5    0.00       0    74.7
 148   23:50   60.5    59    1.1     5      2.6   868.6    0.00       1    74.5
 149    0:00   60.2    58    0.7   166      2.7   868.6    0.00       1    74.3
 149    0:10   59.8    59    0.6   136      1.7   868.7    0.00       1    74.1
 149    0:20   59.1    61    0.2   200      1.1   868.8    0.00       0    74.0
 149    0:30   59.1    60    0.4   240      1.6   868.8    0.00       0    73.8

Return to Caliente, Nevada graphs page.


Western Regional Climate Center,wrcc@dri.edu